Pedro Alexandre, Brazil
Current Conditions -  °F | °C
As of 11:00 AM on Monday 22 Dec 2014 (Local Time) from SBUF Reporting Station
Few Clouds Few Clouds  
Wind Chill: 93°   Ceiling: Unl
Heat Index: 94°   Visibility: 6mi
Dew Point: 63°   Wind: 13mph
Humidity: 36%   Direction: 90°E
Pressure: 29.97"   Gusts: NA
Location:  10.01°S, 37.89°W
Report Text: SBUF 221400Z 09011KT 9999 FEW021 34/17 Q1015
Loading
Personal Weather Stations






























Interactive Weather Map New forecast layout! Learn more

10-Day Weather Forecast

Advertisements
Track Severe Weather on mobile